Time;durP1;ratioP1;P1;durP2;ratioP2;P2;SDS_P1;SDS_P2;PMS_P1;PMS_P2;Temp;Humidity;BMP_temperature;BMP_pressure;BME280_temperature;BME280_humidity;BME280_pressure;Samples;Min_cycle;Max_cycle;Signal;HPM_P1;HPM_P2
2022/10/08 00:01:07;;;;;;;7.13;3.60;;;;;;;15.41;48.03;100387.97;5114684;28;20405;-43
2022/10/08 00:03:36;;;;;;;7.60;3.35;;;;;;;15.52;47.00;100378.41;5114541;28;20015;-41
2022/10/08 00:06:11;;;;;;;6.78;3.55;;;;;;;15.80;46.67;100386.81;5114480;28;20023;-41
2022/10/08 00:08:38;;;;;;;5.13;3.63;;;;;;;15.70;46.88;100380.28;5114548;28;20028;-42
2022/10/08 00:11:10;;;;;;;7.13;3.47;;;;;;;15.76;47.09;100380.25;5114734;28;20098;-42
2022/10/08 00:13:41;;;;;;;5.78;3.40;;;;;;;15.68;47.32;100382.34;5114577;28;20114;-43
2022/10/08 00:16:09;;;;;;;5.80;3.60;;;;;;;15.74;46.67;100376.13;5114507;28;20027;-42
2022/10/08 00:18:35;;;;;;;4.10;3.22;;;;;;;15.64;47.72;100365.88;5114230;28;20032;-43
2022/10/08 00:21:13;;;;;;;5.63;3.42;;;;;;;15.70;47.02;100373.03;5114026;28;20122;-42
2022/10/08 00:23:39;;;;;;;6.97;3.70;;;;;;;15.74;46.99;100366.22;5114234;28;20023;-43
2022/10/08 00:26:06;;;;;;;5.35;3.22;;;;;;;15.79;47.36;100365.56;5114418;28;20058;-42
2022/10/08 00:28:35;;;;;;;4.68;3.28;;;;;;;15.68;47.03;100358.22;5114151;28;20028;-43
2022/10/08 00:31:14;;;;;;;6.10;3.60;;;;;;;15.76;47.73;100355.25;5114002;28;20172;-43
2022/10/08 00:33:39;;;;;;;6.20;3.42;;;;;;;15.78;46.73;100353.19;5114115;28;20034;-42
2022/10/08 00:36:08;;;;;;;5.20;3.55;;;;;;;15.98;47.18;100361.03;5114071;28;20024;-43
2022/10/08 00:38:35;;;;;;;5.45;3.85;;;;;;;16.03;46.70;100359.31;5113065;28;20495;-42
2022/10/08 00:41:01;;;;;;;5.28;3.50;;;;;;;16.06;46.39;100359.91;5113844;28;20042;-43
2022/10/08 00:43:45;;;;;;;5.60;3.22;;;;;;;15.83;47.10;100361.38;5113742;28;20020;-43
2022/10/08 00:46:29;;;;;;;6.28;3.30;;;;;;;15.71;47.54;100357.78;5114206;28;20019;-42
2022/10/08 00:49:01;;;;;;;5.15;3.30;;;;;;;15.75;47.13;100361.69;5112466;28;20019;-42
2022/10/08 00:51:27;;;;;;;6.15;3.45;;;;;;;15.85;46.90;100355.81;5113902;28;20039;-42
2022/10/08 00:53:53;;;;;;;6.03;3.55;;;;;;;15.83;47.28;100359.50;5113751;28;20089;-42
2022/10/08 00:56:20;;;;;;;5.72;3.50;;;;;;;15.90;47.06;100356.78;5113685;28;20059;-42
2022/10/08 00:58:48;;;;;;;5.10;3.47;;;;;;;15.79;46.97;100344.09;5113642;28;20406;-42
2022/10/08 01:01:13;;;;;;;7.85;3.70;;;;;;;15.81;46.99;100342.00;5113941;28;20102;-46
2022/10/08 01:03:39;;;;;;;5.57;3.38;;;;;;;15.85;47.89;100335.16;5113482;28;20456;-42
2022/10/08 01:06:13;;;;;;;5.13;3.30;;;;;;;15.88;48.27;100334.72;5113469;28;20031;-43
2022/10/08 01:08:48;;;;;;;4.97;3.47;;;;;;;15.85;47.70;100337.00;5113449;28;20047;-42
2022/10/08 01:11:42;;;;;;;9.25;4.40;;;;;;;15.82;47.66;100343.63;5113387;28;20030;-43
2022/10/08 01:14:13;;;;;;;7.63;4.35;;;;;;;15.71;48.29;100345.19;5112899;28;20060;-41
2022/10/08 01:16:47;;;;;;;7.22;3.60;;;;;;;15.59;48.52;100337.06;5113169;27;20030;-42
2022/10/08 01:19:55;;;;;;;7.13;3.50;;;;;;;15.65;48.49;100338.03;5113055;28;20035;-42
2022/10/08 01:22:52;;;;;;;5.30;3.60;;;;;;;15.58;48.69;100332.72;5113126;28;20058;-43
2022/10/08 01:25:32;;;;;;;7.22;4.00;;;;;;;15.58;48.71;100330.03;5112943;28;20404;-42
2022/10/08 01:28:21;;;;;;;6.73;3.80;;;;;;;15.52;48.48;100327.44;5113142;28;20020;-43
2022/10/08 01:30:55;;;;;;;5.82;3.67;;;;;;;15.41;48.64;100335.16;5112890;28;20114;-43
2022/10/08 01:33:27;;;;;;;9.73;3.67;;;;;;;15.34;49.24;100320.97;5112246;28;20019;-43
2022/10/08 01:35:57;;;;;;;6.88;3.80;;;;;;;15.35;49.23;100322.63;5112863;28;20031;-43
2022/10/08 01:38:26;;;;;;;9.10;3.70;;;;;;;15.29;49.44;100317.31;5112785;28;20024;-43
2022/10/08 01:40:57;;;;;;;6.93;3.90;;;;;;;15.02;50.34;100320.22;5112875;27;20031;-43
2022/10/08 01:43:26;;;;;;;6.65;3.78;;;;;;;15.02;50.31;100320.22;5112587;28;20024;-45
2022/10/08 01:46:04;;;;;;;6.35;3.47;;;;;;;15.09;50.30;100320.19;5112430;28;20028;-44
2022/10/08 01:48:34;;;;;;;7.07;4.00;;;;;;;15.18;49.93;100308.16;5112018;28;20024;-44
2022/10/08 01:51:25;;;;;;;7.03;4.00;;;;;;;15.15;50.30;100324.66;5112812;28;20371;-43
2022/10/08 01:53:51;;;;;;;6.22;3.35;;;;;;;15.04;50.01;100318.97;5112597;28;20023;-43
2022/10/08 01:56:23;;;;;;;6.25;3.90;;;;;;;15.01;50.68;100314.06;5112281;28;20108;-43
2022/10/08 01:59:21;;;;;;;6.95;3.83;;;;;;;15.04;50.53;100315.47;5111077;28;20024;-43
2022/10/08 02:01:51;;;;;;;8.43;4.00;;;;;;;14.74;51.23;100321.47;5077911;28;20040;-43
2022/10/08 02:04:34;;;;;;;6.53;3.55;;;;;;;14.82;51.23;100321.19;5112285;28;20571;-42
2022/10/08 02:07:13;;;;;;;7.07;3.65;;;;;;;14.73;51.32;100321.69;5112603;28;20028;-42
2022/10/08 02:09:42;;;;;;;5.60;3.63;;;;;;;14.70;51.38;100324.78;5112351;28;20443;-42
2022/10/08 02:12:09;;;;;;;7.05;3.40;;;;;;;14.72;51.27;100318.19;5112274;28;20027;-43
2022/10/08 02:14:38;;;;;;;6.72;3.63;;;;;;;14.72;51.11;100325.41;5112075;28;20031;-43
2022/10/08 02:17:13;;;;;;;8.25;3.63;;;;;;;14.77;51.45;100326.38;5111715;28;20042;-42
2022/10/08 02:20:15;;;;;;;6.13;3.78;;;;;;;14.92;51.56;100323.41;5111871;28;20031;-43
2022/10/08 02:22:54;;;;;;;7.80;3.70;;;;;;;14.84;51.24;100326.34;5111937;28;20043;-42
2022/10/08 02:25:31;;;;;;;9.10;3.70;;;;;;;14.99;50.70;100323.34;5111742;28;20019;-44
2022/10/08 02:27:59;;;;;;;7.35;4.18;;;;;;;14.98;50.89;100324.38;5111883;28;20023;-43
2022/10/08 02:30:31;;;;;;;6.95;3.75;;;;;;;15.04;50.38;100326.19;5111575;28;20034;-44
2022/10/08 02:33:07;;;;;;;7.88;3.92;;;;;;;14.95;50.70;100317.59;5111687;28;20047;-42
2022/10/08 02:35:43;;;;;;;7.80;3.67;;;;;;;14.86;50.28;100317.03;5111440;28;20078;-42
2022/10/08 02:38:22;;;;;;;8.00;4.18;;;;;;;14.77;50.88;100323.69;5111937;28;20080;-42
2022/10/08 02:40:51;;;;;;;5.40;3.88;;;;;;;14.67;51.32;100320.69;5110335;28;20429;-43
2022/10/08 02:43:21;;;;;;;7.90;4.20;;;;;;;14.66;51.36;100321.75;5111768;28;20019;-43
2022/10/08 02:45:54;;;;;;;6.80;4.10;;;;;;;14.65;52.10;100322.78;5111589;28;20047;-43
2022/10/08 02:48:28;;;;;;;8.68;4.53;;;;;;;14.65;52.10;100312.88;5111335;28;20371;-43
2022/10/08 02:50:55;;;;;;;7.63;3.95;;;;;;;14.70;51.35;100306.88;5112048;28;20035;-43
2022/10/08 02:53:23;;;;;;;5.97;3.70;;;;;;;14.69;51.22;100321.28;5111477;28;20146;-37
2022/10/08 02:55:57;;;;;;;5.97;4.00;;;;;;;14.58;51.17;100320.16;5111616;28;20072;-37
2022/10/08 02:58:23;;;;;;;9.23;4.22;;;;;;;14.56;51.21;100322.16;5111427;28;20433;-37
2022/10/08 03:01:02;;;;;;;6.80;3.95;;;;;;;14.52;51.76;100317.47;5111391;28;20023;-37
2022/10/08 03:03:33;;;;;;;10.13;4.20;;;;;;;14.44;51.70;100322.03;5111645;28;20102;-36
2022/10/08 03:06:03;;;;;;;10.02;4.47;;;;;;;14.47;51.70;100323.47;5111477;28;20541;-37
2022/10/08 03:08:30;;;;;;;4.78;3.83;;;;;;;14.56;51.71;100318.66;5111359;28;20012;-36
2022/10/08 03:10:56;;;;;;;7.55;4.15;;;;;;;14.65;51.55;100320.91;5109876;28;20416;-36
2022/10/08 03:13:23;;;;;;;7.47;3.85;;;;;;;14.76;51.55;100324.75;5115543;28;20057;-37
2022/10/08 03:15:52;;;;;;;6.43;3.88;;;;;;;14.79;50.71;100318.97;5115531;28;20035;-37
2022/10/08 03:18:19;;;;;;;5.45;3.53;;;;;;;14.71;51.21;100310.38;5115611;28;20115;-37
2022/10/08 03:20:50;;;;;;;7.32;4.00;;;;;;;14.82;50.51;100320.38;5115424;28;20062;-37
2022/10/08 03:23:17;;;;;;;9.70;3.70;;;;;;;14.81;51.04;100319.56;5115458;28;20057;-37
2022/10/08 03:25:43;;;;;;;6.75;3.95;;;;;;;14.74;50.85;100321.47;5115718;28;20027;-37
2022/10/08 03:28:08;;;;;;;6.20;3.90;;;;;;;14.75;50.54;100315.06;5114519;28;20035;-36
2022/10/08 03:30:34;;;;;;;6.93;3.80;;;;;;;14.72;50.56;100323.56;5115432;28;20028;-37
2022/10/08 03:33:00;;;;;;;7.15;4.15;;;;;;;14.65;51.04;100320.09;5115486;28;20027;-36
2022/10/08 03:35:25;;;;;;;9.30;4.25;;;;;;;14.63;51.39;100312.25;5115527;28;20081;-36
2022/10/08 03:37:52;;;;;;;5.72;3.88;;;;;;;14.55;51.21;100315.19;5115191;28;20016;-36
2022/10/08 03:40:18;;;;;;;6.57;3.88;;;;;;;14.46;51.34;100314.59;5115375;28;20023;-37
2022/10/08 03:42:44;;;;;;;7.53;3.90;;;;;;;14.54;51.40;100313.53;5115726;28;20189;-37
2022/10/08 03:45:09;;;;;;;6.13;3.72;;;;;;;14.60;50.87;100306.50;5115561;28;20102;-37
2022/10/08 03:47:34;;;;;;;9.02;4.43;;;;;;;14.60;50.94;100306.50;5114519;28;20023;-37
2022/10/08 03:50:00;;;;;;;7.00;3.80;;;;;;;14.52;51.01;100307.56;5115150;28;20107;-37
2022/10/08 03:52:25;;;;;;;5.15;3.60;;;;;;;14.60;50.63;100301.16;5114933;28;20098;-37
2022/10/08 03:54:51;;;;;;;7.72;4.03;;;;;;;14.58;50.87;100297.88;5114855;28;20490;-36
2022/10/08 03:57:16;;;;;;;6.97;3.80;;;;;;;14.54;50.95;100300.13;5114770;28;20055;-37
2022/10/08 03:59:41;;;;;;;5.35;3.60;;;;;;;14.52;51.15;100298.72;5114910;28;20028;-37
2022/10/08 04:02:07;;;;;;;6.90;3.50;;;;;;;14.49;51.24;100299.97;5114955;27;20110;-35
2022/10/08 04:04:32;;;;;;;5.20;3.50;;;;;;;14.53;50.89;100306.53;5114906;28;20073;-35
2022/10/08 04:06:58;;;;;;;6.45;3.50;;;;;;;14.55;50.95;100306.34;5114833;28;20016;-35
2022/10/08 04:09:23;;;;;;;8.63;5.03;;;;;;;14.63;50.28;100300.75;5114952;28;20011;-35
2022/10/08 04:11:49;;;;;;;7.30;4.70;;;;;;;14.64;50.63;100294.31;5114424;28;20020;-36
2022/10/08 04:14:14;;;;;;;12.85;8.18;;;;;;;14.57;51.10;100297.06;5114813;28;20062;-36
2022/10/08 04:16:39;;;;;;;9.18;5.45;;;;;;;14.50;51.16;100282.03;5114674;28;20160;-36
2022/10/08 04:19:05;;;;;;;5.68;3.67;;;;;;;14.41;51.13;100292.19;5114390;28;20030;-36
2022/10/08 04:21:30;;;;;;;5.43;3.30;;;;;;;14.11;52.20;100287.41;5114414;28;20047;-37
2022/10/08 04:23:56;;;;;;;7.78;3.30;;;;;;;14.21;51.85;100290.44;5114122;28;20019;-37
2022/10/08 04:26:21;;;;;;;5.38;3.58;;;;;;;14.13;51.71;100292.56;5114243;28;20416;-37
2022/10/08 04:28:47;;;;;;;8.23;4.22;;;;;;;13.85;52.53;100286.47;5114436;28;20011;-37
2022/10/08 04:31:15;;;;;;;5.30;4.38;;;;;;;13.77;52.55;100280.56;5114195;28;20020;-36
2022/10/08 04:33:41;;;;;;;6.88;4.72;;;;;;;13.74;52.75;100281.78;5114481;28;20019;-36
2022/10/08 04:36:12;;;;;;;8.23;5.50;;;;;;;13.66;52.95;100284.72;5114042;28;20433;-35
2022/10/08 04:38:37;;;;;;;8.02;5.25;;;;;;;13.56;53.01;100279.00;5113766;28;20020;-35
2022/10/08 04:41:09;;;;;;;9.30;5.10;;;;;;;13.75;52.83;100283.44;5114115;28;20034;-36
2022/10/08 04:43:36;;;;;;;8.70;6.85;;;;;;;13.69;52.99;100282.44;5113862;28;20390;-36
2022/10/08 04:46:03;;;;;;;6.82;4.45;;;;;;;13.65;52.65;100277.69;5113913;28;20020;-36
2022/10/08 04:48:29;;;;;;;8.82;5.00;;;;;;;13.43;53.78;100283.31;5113606;28;20011;-36
2022/10/08 04:51:01;;;;;;;6.57;4.40;;;;;;;14.00;52.36;100280.88;5113863;28;20453;-36
2022/10/08 04:53:27;;;;;;;5.90;4.00;;;;;;;14.32;51.32;100278.25;5114199;28;20032;-36
2022/10/08 04:55:54;;;;;;;5.28;3.95;;;;;;;14.13;51.02;100273.84;5113798;28;20076;-36
2022/10/08 04:58:20;;;;;;;4.78;3.63;;;;;;;13.96;51.55;100268.97;5113851;28;20157;-36
2022/10/08 05:00:45;;;;;;;7.40;3.83;;;;;;;14.06;51.32;100279.19;5113754;28;20027;-37
2022/10/08 05:03:11;;;;;;;5.00;3.42;;;;;;;14.44;50.97;100275.69;5113493;27;20156;-37
2022/10/08 05:05:41;;;;;;;7.53;3.80;;;;;;;14.92;49.62;100283.19;5113163;28;20028;-36
2022/10/08 05:08:07;;;;;;;8.30;3.95;;;;;;;15.09;49.74;100288.00;5113455;28;20035;-36
2022/10/08 05:10:32;;;;;;;5.60;3.50;;;;;;;15.73;48.22;100284.09;5113479;28;20077;-37
2022/10/08 05:12:57;;;;;;;6.93;3.78;;;;;;;16.16;46.81;100288.53;5113197;28;20081;-37
2022/10/08 05:15:23;;;;;;;8.70;4.57;;;;;;;16.54;45.91;100289.22;5113283;28;20024;-36
2022/10/08 05:17:48;;;;;;;7.47;3.92;;;;;;;16.83;45.68;100298.34;5101742;28;20483;-36
2022/10/08 05:20:14;;;;;;;5.85;3.63;;;;;;;17.29;44.83;100298.59;5092427;28;20031;-37
2022/10/08 05:22:39;;;;;;;8.50;3.63;;;;;;;17.61;43.96;100304.44;5092362;28;20048;-36
2022/10/08 05:25:05;;;;;;;5.93;3.55;;;;;;;17.77;43.50;100305.56;5092615;28;20027;-37
2022/10/08 05:27:31;;;;;;;8.40;3.63;;;;;;;17.68;43.15;100302.41;5099660;28;20444;-37
2022/10/08 05:29:56;;;;;;;9.65;3.90;;;;;;;18.20;42.58;100301.63;5112904;27;20034;-36
2022/10/08 05:32:21;;;;;;;4.93;3.72;;;;;;;18.75;41.13;100306.38;5112641;28;20412;-37
2022/10/08 05:34:47;;;;;;;7.88;3.65;;;;;;;19.04;40.42;100302.78;5111906;28;20024;-37
2022/10/08 05:37:12;;;;;;;8.00;4.22;;;;;;;19.31;40.15;100305.66;5112604;28;20048;-34
2022/10/08 05:39:38;;;;;;;17.02;6.53;;;;;;;19.71;39.07;100309.97;5112642;28;20027;-36
2022/10/08 05:42:03;;;;;;;34.42;8.13;;;;;;;20.10;38.25;100310.75;5111727;28;20015;-35
2022/10/08 05:44:28;;;;;;;18.95;6.00;;;;;;;20.49;37.64;100318.72;5111663;28;20080;-35
2022/10/08 05:46:54;;;;;;;52.42;12.02;;;;;;;20.67;37.35;100309.47;5111545;28;20098;-35
2022/10/08 05:49:21;;;;;;;10.23;4.57;;;;;;;20.89;36.22;100319.41;5111736;28;20072;-35
2022/10/08 05:51:48;;;;;;;10.85;4.25;;;;;;;21.15;35.94;100316.88;5111824;28;20035;-35
2022/10/08 05:54:18;;;;;;;10.63;4.25;;;;;;;21.35;35.43;100325.16;5111763;28;20015;-35
2022/10/08 05:56:43;;;;;;;9.13;4.07;;;;;;;21.65;35.15;100326.44;5111202;28;20031;-42
2022/10/08 05:59:18;;;;;;;7.38;4.22;;;;;;;22.01;34.73;100327.41;5113716;27;20031;-40
2022/10/08 06:01:43;;;;;;;8.20;3.85;;;;;;;22.48;33.63;100320.25;5098661;28;20111;-40
2022/10/08 06:04:10;;;;;;;7.85;3.92;;;;;;;22.76;33.44;100316.22;5090888;28;20123;-41
2022/10/08 06:06:37;;;;;;;6.88;3.78;;;;;;;23.07;33.11;100316.22;5093756;28;20108;-43
2022/10/08 06:09:03;;;;;;;5.50;3.80;;;;;;;23.30;32.56;100322.16;5111271;28;20530;-41
2022/10/08 06:11:31;;;;;;;6.30;4.18;;;;;;;23.52;32.10;100321.88;5111061;28;20478;-42
2022/10/08 06:14:00;;;;;;;7.65;4.03;;;;;;;23.79;31.79;100325.06;5108191;28;20047;-44
2022/10/08 06:16:28;;;;;;;11.50;4.03;;;;;;;24.17;30.96;100328.16;5110369;28;20085;-42
2022/10/08 06:18:54;;;;;;;8.93;5.15;;;;;;;24.40;30.76;100334.81;5110089;28;20024;-43
2022/10/08 06:21:22;;;;;;;9.00;5.65;;;;;;;24.30;31.02;100334.88;5110837;28;20207;-41
2022/10/08 06:23:53;;;;;;;6.27;3.97;;;;;;;24.54;30.61;100336.94;5110884;28;20028;-41
2022/10/08 06:26:21;;;;;;;10.93;5.07;;;;;;;24.92;30.59;100334.47;5110594;28;20258;-42
2022/10/08 06:28:47;;;;;;;9.88;4.03;;;;;;;25.49;29.24;100330.19;5110787;28;20020;-42
2022/10/08 06:31:13;;;;;;;7.85;3.70;;;;;;;25.75;29.25;100321.69;5108671;28;20136;-43
2022/10/08 06:33:39;;;;;;;6.75;4.38;;;;;;;26.07;28.50;100325.72;5110605;28;20487;-43
2022/10/08 06:36:07;;;;;;;9.82;5.30;;;;;;;26.26;28.20;100329.25;5110935;28;20229;-43
2022/10/08 06:38:32;;;;;;;5.63;4.50;;;;;;;25.61;28.79;100332.50;5109806;28;20050;-41
2022/10/08 06:40:59;;;;;;;6.32;3.80;;;;;;;25.84;28.86;100325.41;5110465;28;20455;-41
2022/10/08 06:43:25;;;;;;;6.07;3.42;;;;;;;26.21;28.53;100331.25;5110555;28;20038;-43
2022/10/08 06:45:51;;;;;;;9.85;3.63;;;;;;;26.26;28.48;100337.44;5110683;28;20460;-43
2022/10/08 06:48:18;;;;;;;8.68;3.50;;;;;;;26.74;27.93;100338.41;5110167;28;20172;-43
2022/10/08 06:50:44;;;;;;;6.53;3.45;;;;;;;26.88;27.68;100323.72;5110844;28;20368;-43
2022/10/08 06:53:10;;;;;;;8.73;3.55;;;;;;;27.21;27.30;100326.41;5110882;28;20524;-42
2022/10/08 06:55:36;;;;;;;7.50;3.55;;;;;;;27.70;26.77;100315.94;5110246;28;20051;-44
2022/10/08 06:58:03;;;;;;;8.48;3.95;;;;;;;27.96;26.34;100326.41;5110756;28;20027;-45
2022/10/08 07:00:29;;;;;;;6.07;3.75;;;;;;;28.21;26.25;100319.56;5105202;28;20038;-37
2022/10/08 07:02:56;;;;;;;7.57;3.80;;;;;;;28.31;26.08;100322.06;5098945;28;20862;-35
2022/10/08 07:05:21;;;;;;;9.25;4.53;;;;;;;28.43;26.00;100327.81;5110821;28;20023;-36
2022/10/08 07:07:47;;;;;;;6.40;3.80;;;;;;;28.35;26.15;100325.81;5110463;28;20023;-35
2022/10/08 07:10:12;;;;;;;9.88;3.65;;;;;;;28.39;25.82;100331.47;5110621;28;20024;-37
2022/10/08 07:12:38;;;;;;;6.63;3.30;;;;;;;28.68;25.90;100331.09;5110477;28;20106;-38
2022/10/08 07:15:03;;;;;;;5.82;2.95;;;;;;;28.72;25.34;100329.34;5110573;28;20099;-36
2022/10/08 07:17:29;;;;;;;5.78;3.63;;;;;;;28.32;26.18;100325.63;5110112;28;20150;-37
2022/10/08 07:19:55;;;;;;;8.00;3.67;;;;;;;28.12;26.66;100330.44;5110833;28;20099;-36
2022/10/08 07:22:21;;;;;;;6.18;3.40;;;;;;;28.14;26.47;100327.38;5110508;28;20051;-36
2022/10/08 07:24:47;;;;;;;6.75;3.00;;;;;;;27.99;26.33;100323.06;5110157;28;20398;-36
2022/10/08 07:27:13;;;;;;;5.82;3.33;;;;;;;28.48;25.58;100326.88;5109693;28;20019;-37
2022/10/08 07:29:38;;;;;;;8.95;3.03;;;;;;;28.27;26.00;100315.59;5109205;28;20042;-37
2022/10/08 07:32:04;;;;;;;5.80;3.00;;;;;;;28.59;25.51;100305.56;5108612;28;20027;-37
2022/10/08 07:34:29;;;;;;;7.90;3.00;;;;;;;28.90;25.15;100308.38;5107071;28;20036;-37
2022/10/08 07:36:54;;;;;;;4.97;2.85;;;;;;;29.20;25.02;100301.28;5109353;28;20105;-37
2022/10/08 07:39:21;;;;;;;5.38;3.10;;;;;;;29.42;24.56;100302.38;5109454;28;20039;-36
2022/10/08 07:41:48;;;;;;;4.72;2.90;;;;;;;29.22;24.46;100301.00;5110134;28;20092;-36
2022/10/08 07:44:14;;;;;;;5.78;3.00;;;;;;;29.09;25.07;100304.59;5110274;28;20076;-37
2022/10/08 07:46:48;;;;;;;6.18;3.35;;;;;;;29.16;24.56;100303.06;5110167;28;20024;-36
2022/10/08 07:49:15;;;;;;;16.25;7.53;;;;;;;28.76;25.18;100308.44;5110362;28;20095;-36
2022/10/08 07:51:40;;;;;;;11.63;4.80;;;;;;;29.15;24.44;100297.88;5110103;28;20127;-37
2022/10/08 07:54:07;;;;;;;8.77;6.30;;;;;;;28.96;24.95;100307.13;5110381;28;20027;-36
2022/10/08 07:56:35;;;;;;;7.35;5.13;;;;;;;29.35;24.26;100307.50;5108489;28;20448;-37
2022/10/08 07:59:01;;;;;;;5.95;4.43;;;;;;;29.53;24.11;100298.22;5112924;28;20567;-36
2022/10/08 08:01:28;;;;;;;10.73;3.85;;;;;;;29.43;24.15;100298.50;5114150;28;20084;-37
2022/10/08 08:04:02;;;;;;;7.68;3.13;;;;;;;30.04;23.60;100304.16;5114287;28;20070;-43
2022/10/08 08:06:28;;;;;;;5.90;3.20;;;;;;;30.42;23.54;100300.03;5114034;28;20137;-42
2022/10/08 08:08:54;;;;;;;6.05;3.35;;;;;;;30.64;25.76;100301.78;5111696;28;20027;-44
2022/10/08 08:11:22;;;;;;;10.60;5.25;;;;;;;30.55;23.85;100294.34;5102541;28;20379;-44
2022/10/08 08:13:48;;;;;;;9.13;3.70;;;;;;;30.62;24.79;100296.63;5096629;28;20020;-44
2022/10/08 08:16:16;;;;;;;5.43;2.90;;;;;;;31.03;23.14;100287.00;5096911;28;20511;-44
2022/10/08 08:18:44;;;;;;;8.23;2.80;;;;;;;30.70;22.91;100289.50;5103739;28;20340;-36
2022/10/08 08:21:15;;;;;;;7.45;4.43;;;;;;;29.59;23.95;100285.97;5112592;28;20445;-36
2022/10/08 08:23:43;;;;;;;7.78;3.55;;;;;;;29.61;23.87;100286.47;5113475;28;20032;-36
2022/10/08 08:26:12;;;;;;;5.43;2.90;;;;;;;30.26;24.51;100281.25;5113088;28;20028;-36
2022/10/08 08:28:38;;;;;;;3.75;2.45;;;;;;;30.69;22.63;100287.88;5112709;28;20106;-37
2022/10/08 08:31:12;;;;;;;7.78;2.72;;;;;;;30.62;22.57;100274.66;5112071;28;20591;-37
2022/10/08 08:33:38;;;;;;;3.97;2.47;;;;;;;30.48;22.46;100279.50;5111338;28;20134;-37
2022/10/08 08:36:04;;;;;;;5.28;2.60;;;;;;;30.43;23.06;100274.19;5110916;28;20456;-37
2022/10/08 08:38:32;;;;;;;7.57;3.65;;;;;;;29.34;23.48;100267.50;5111222;28;20032;-37
2022/10/08 08:41:07;;;;;;;4.85;3.15;;;;;;;29.23;23.46;100267.00;5111032;28;20027;-36
2022/10/08 08:43:33;;;;;;;5.70;3.20;;;;;;;30.23;23.17;100262.69;5111791;27;20536;-36
2022/10/08 08:46:00;;;;;;;7.35;2.90;;;;;;;30.52;23.41;100259.31;5102885;28;20125;-37
2022/10/08 08:48:31;;;;;;;4.18;2.70;;;;;;;30.19;23.05;100253.50;5092482;28;20032;-37
2022/10/08 08:50:58;;;;;;;6.70;2.85;;;;;;;30.43;22.62;100265.97;5096375;28;20032;-37
2022/10/08 08:53:24;;;;;;;3.88;2.60;;;;;;;30.73;22.18;100251.22;5096375;28;20126;-37
2022/10/08 08:55:54;;;;;;;3.67;2.33;;;;;;;30.91;21.32;100259.44;5103706;28;20158;-36
2022/10/08 08:58:33;;;;;;;5.55;2.90;;;;;;;30.64;22.46;100258.66;5113170;28;20023;-37
2022/10/08 09:01:24;;;;;;;5.53;2.70;;;;;;;30.48;22.24;100252.03;5092423;28;20082;-36
2022/10/08 09:03:54;;;;;;;5.05;3.00;;;;;;;30.53;23.17;100238.16;5083222;28;20044;-36
2022/10/08 09:06:24;;;;;;;6.32;3.90;;;;;;;30.36;23.65;100248.03;5092670;28;20032;-36
2022/10/08 09:09:08;;;;;;;5.07;2.60;;;;;;;30.39;22.91;100249.34;5090238;28;20021;-36
2022/10/08 09:11:36;;;;;;;3.78;2.75;;;;;;;30.50;23.47;100242.38;5091143;28;20028;-36
2022/10/08 09:14:29;;;;;;;6.85;2.95;;;;;;;30.52;23.23;100231.03;5091225;28;20024;-36
2022/10/08 09:16:56;;;;;;;7.03;3.00;;;;;;;29.75;24.51;100214.25;5091429;28;20078;-36
2022/10/08 09:19:21;;;;;;;5.25;2.70;;;;;;;30.16;24.95;100229.47;5091415;28;20502;-36
2022/10/08 09:21:47;;;;;;;4.55;2.70;;;;;;;30.77;23.41;100213.72;5111114;28;20142;-36
2022/10/08 09:24:14;;;;;;;3.42;2.60;;;;;;;30.79;22.41;100205.94;5112030;28;20019;-36
2022/10/08 09:26:40;;;;;;;6.15;2.65;;;;;;;30.51;23.53;100202.78;5112864;28;20028;-36
2022/10/08 09:29:06;;;;;;;4.03;2.83;;;;;;;30.96;23.16;100204.31;5112784;28;20031;-36
2022/10/08 09:31:40;;;;;;;5.00;2.70;;;;;;;30.35;23.13;100199.75;5112593;28;20080;-36
2022/10/08 09:34:09;;;;;;;8.20;5.10;;;;;;;29.96;23.80;100201.53;5112054;28;20031;-37
2022/10/08 09:37:02;;;;;;;5.45;2.90;;;;;;;29.24;24.72;100191.88;5112582;27;20057;-37
2022/10/08 09:39:34;;;;;;;5.13;2.60;;;;;;;29.35;24.76;100186.91;5111792;28;20111;-37
2022/10/08 09:42:05;;;;;;;5.15;2.83;;;;;;;29.31;25.38;100191.41;5112079;28;20479;-37
2022/10/08 09:44:54;;;;;;;7.28;2.60;;;;;;;29.44;25.24;100185.00;5112095;28;20094;-37
2022/10/08 09:47:24;;;;;;;4.68;2.78;;;;;;;29.68;24.48;100179.03;5112539;28;20182;-36
2022/10/08 09:50:20;;;;;;;5.53;3.05;;;;;;;30.60;24.27;100178.88;5111787;28;20160;-37
2022/10/08 09:52:49;;;;;;;6.20;2.92;;;;;;;30.91;22.66;100171.50;5110772;28;20051;-37
2022/10/08 09:55:14;;;;;;;4.15;2.88;;;;;;;29.93;23.17;100163.78;5112184;28;20031;-37
2022/10/08 09:57:46;;;;;;;6.80;3.03;;;;;;;29.21;24.08;100165.91;5112184;28;20023;-37
2022/10/08 10:00:36;;;;;;;14.00;5.60;;;;;;;28.87;24.81;100160.31;5112199;27;20103;-36
2022/10/08 10:03:04;;;;;;;4.20;2.80;;;;;;;28.97;24.18;100160.81;5112188;28;20106;-36
2022/10/08 10:05:32;;;;;;;5.43;2.60;;;;;;;29.07;24.37;100159.72;5111728;28;20027;-36
2022/10/08 10:07:58;;;;;;;3.20;2.50;;;;;;;29.49;23.67;100156.63;5111820;28;20024;-36
2022/10/08 10:10:37;;;;;;;3.42;2.60;;;;;;;30.19;23.86;100151.97;5110927;28;20019;-36
2022/10/08 10:13:08;;;;;;;;;;;;;;;30.51;22.91;100133.34;5110066;28;20042;-36
2022/10/08 10:15:40;;;;;;;3.63;2.70;;;;;;;30.60;22.75;100140.41;5111715;28;19990;-36
2022/10/08 10:18:19;;;;;;;5.68;2.97;;;;;;;29.92;23.25;100131.19;5110457;28;20467;-37
2022/10/08 10:20:49;;;;;;;3.25;2.47;;;;;;;30.04;22.70;100128.56;5110940;28;20062;-37
2022/10/08 10:23:28;;;;;;;7.25;2.60;;;;;;;30.45;23.12;100127.22;5111793;28;20138;-37
2022/10/08 10:26:10;;;;;;;4.28;2.75;;;;;;;30.68;22.25;100116.81;5111746;28;20031;-37
2022/10/08 10:28:44;;;;;;;2.63;2.40;;;;;;;29.91;22.38;100107.63;5111660;28;20696;-37
2022/10/08 10:31:39;;;;;;;5.45;2.50;;;;;;;28.77;23.05;100101.97;5110934;28;20030;-36
2022/10/08 10:34:19;;;;;;;3.00;2.38;;;;;;;28.70;22.96;100098.88;5111187;28;20122;-37
2022/10/08 10:36:50;;;;;;;2.78;2.20;;;;;;;29.17;22.46;100093.72;5108462;28;20095;-37
2022/10/08 10:39:37;;;;;;;4.55;2.40;;;;;;;29.10;22.62;100089.81;5109200;28;20033;-37
2022/10/08 10:42:20;;;;;;;4.10;2.17;;;;;;;28.70;22.90;100079.69;5109853;28;20024;-36
2022/10/08 10:45:16;;;;;;;82.28;69.47;;;;;;;29.04;22.24;100075.44;5110748;28;20024;-37
2022/10/08 10:47:41;;;;;;;118.50;97.18;;;;;;;29.73;22.11;100071.97;5099539;28;20027;-37
2022/10/08 10:50:15;;;;;;;13.48;9.48;;;;;;;30.34;22.22;100066.38;5110819;28;20494;-37
2022/10/08 10:52:43;;;;;;;5.50;3.88;;;;;;;31.08;21.15;100074.44;5110188;28;20030;-37
2022/10/08 10:55:30;;;;;;;3.63;2.20;;;;;;;31.40;20.65;100067.44;5111338;28;20024;-37
2022/10/08 10:58:04;;;;;;;3.30;2.20;;;;;;;30.75;21.23;100061.38;5110696;28;20278;-37
2022/10/08 11:00:42;;;;;;;3.70;2.38;;;;;;;29.11;22.95;100064.84;5110358;28;20019;-37
2022/10/08 11:03:20;;;;;;;4.28;2.40;;;;;;;28.33;23.94;100054.41;5110736;28;20023;-37
2022/10/08 11:05:50;;;;;;;3.00;2.20;;;;;;;28.34;24.07;100055.22;5110902;28;20020;-37
2022/10/08 11:09:00;;;;;;;4.55;2.60;;;;;;;28.99;23.86;100051.75;5110892;28;20027;-37
2022/10/08 11:11:42;;;;;;;3.65;2.45;;;;;;;28.94;23.66;100042.88;5109171;28;20123;-37
2022/10/08 11:14:27;;;;;;;4.07;2.22;;;;;;;28.52;23.90;100040.53;5110933;28;20034;-37
2022/10/08 11:17:11;;;;;;;3.20;2.30;;;;;;;28.14;24.34;100040.13;5110966;28;20027;-37
2022/10/08 11:19:45;;;;;;;7.97;2.40;;;;;;;28.37;24.62;100033.50;5111016;28;20020;-37
2022/10/08 11:22:39;;;;;;;4.50;2.40;;;;;;;29.27;23.10;100026.81;5110060;28;20071;-37
2022/10/08 11:25:19;;;;;;;5.32;2.60;;;;;;;30.23;22.09;100026.69;5104250;28;20043;-37
2022/10/08 11:27:53;;;;;;;6.05;2.47;;;;;;;30.25;22.14;100016.19;5104373;28;20444;-37
2022/10/08 11:30:44;;;;;;;5.03;2.47;;;;;;;30.56;22.08;100020.59;5112989;28;20378;-36
2022/10/08 11:33:14;;;;;;;7.03;3.20;;;;;;;30.73;22.05;100015.00;5094627;28;20028;-37
2022/10/08 11:35:56;;;;;;;5.78;3.10;;;;;;;31.05;21.49;100009.16;5094502;28;20051;-37
2022/10/08 11:38:36;;;;;;;3.20;2.20;;;;;;;29.99;22.55;100005.31;5094374;28;20024;-37
2022/10/08 11:41:05;;;;;;;2.92;2.55;;;;;;;30.53;21.82;99996.53;5094077;28;20024;-37